Terminal Aerodrome Forecast
Issued by NWS Omaha/Valley, NE

Current Version | Previous Version | Text Only | Print | Product List | Glossary On
Versions: 1 2 3 4 5 6 7 8 9 10 11 12 13 14 15 16 17 18 19 20 21 22 23 24 25 26 27 28 29 30 31 32 33 34 35 36 37 38 39 40 41 42 43 44
119
FTUS43 KOAX 250201 AAA
TAFLNK
TAF AMD
KLNK 250201Z 2502/2524 02008KT 3SM BR OVC005
      TEMPO 2502/2504 1 1/2SM -SN BR
     FM250400 36012KT 2SM BR OVC005
     FM250700 33013KT P6SM VCSH OVC008
     FM251400 32018KT P6SM VCSH OVC015
     FM251600 32019G27KT P6SM OVC015
     FM251900 32020G28KT P6SM OVC020=

USA.gov is the U.S. government's official web portal to all federal, state and local government web resources and services.